createdAt,value
2017-10-21T00:04:14.502Z,97247.39
2017-10-21T00:09:01.849Z,97238.31
2017-10-21T00:13:48.446Z,97240.98
2017-10-21T00:18:35.773Z,97243.10
2017-10-21T00:23:23.085Z,97242.28
2017-10-21T00:28:09.973Z,97242.89
2017-10-21T00:32:56.598Z,97230.05
2017-10-21T00:37:43.195Z,97235.48
2017-10-21T00:42:30.501Z,97227.47
2017-10-21T00:47:17.080Z,97219.87
2017-10-21T00:52:03.657Z,97212.05
2017-10-21T00:56:51.247Z,97212.97
2017-10-21T01:01:37.821Z,97210.05
2017-10-21T01:06:25.149Z,97204.89
2017-10-21T01:11:11.706Z,97213.30
2017-10-21T01:15:58.301Z,97203.31
2017-10-21T01:20:45.764Z,97206.95
2017-10-21T01:25:32.393Z,97195.32
2017-10-21T01:30:19.115Z,97194.05
2017-10-21T01:35:05.682Z,97192.11
2017-10-21T01:39:52.236Z,97194.31
2017-10-21T01:44:39.533Z,97193.87
2017-10-21T01:49:26.077Z,97198.36
2017-10-21T01:54:13.425Z,97192.81
2017-10-21T01:59:00.844Z,97198.27
2017-10-21T02:03:47.388Z,97199.48
2017-10-21T02:08:34.013Z,97202.88
2017-10-21T02:13:20.740Z,97204.83
2017-10-21T02:18:14.372Z,97212.66
2017-10-21T02:23:00.981Z,97205.14
2017-10-21T02:27:47.528Z,97215.08
2017-10-21T02:32:34.864Z,97201.61
2017-10-21T02:37:22.254Z,97197.20
2017-10-21T02:42:08.829Z,97191.58
2017-10-21T02:46:56.160Z,97187.68
2017-10-21T02:51:43.544Z,97178.16
2017-10-21T02:56:30.141Z,97182.70
2017-10-21T03:01:16.930Z,97177.53
2017-10-21T03:06:03.498Z,97183.05
2017-10-21T03:10:50.128Z,97180.97
2017-10-21T03:15:36.710Z,97176.77
2017-10-21T03:20:24.029Z,97178.56
2017-10-21T03:25:10.573Z,97179.83
2017-10-21T03:29:57.149Z,97182.14
2017-10-21T03:34:43.721Z,97187.80
2017-10-21T03:39:30.295Z,97176.05
2017-10-21T03:44:16.943Z,97167.02
2017-10-21T03:49:04.268Z,97168.28
2017-10-21T03:53:51.728Z,97158.59
2017-10-21T03:58:38.304Z,97173.95
2017-10-21T04:03:24.899Z,97175.05
2017-10-21T04:08:11.569Z,97181.13
2017-10-21T04:12:58.890Z,97180.63
2017-10-21T04:17:45.488Z,97180.11
2017-10-21T04:22:32.174Z,97179.70
2017-10-21T04:27:18.872Z,97166.88
2017-10-21T04:32:06.215Z,97156.95
2017-10-21T04:36:53.536Z,97160.64
2017-10-21T04:41:40.844Z,97153.97
2017-10-21T04:46:27.460Z,97157.61
2017-10-21T04:51:14.045Z,97150.54
2017-10-21T04:56:00.613Z,97142.02
2017-10-21T05:00:47.212Z,97146.09
2017-10-21T05:05:33.752Z,97148.84
2017-10-21T05:10:20.329Z,97140.98
2017-10-21T05:15:07.005Z,97160.16
2017-10-21T05:19:53.668Z,97179.36
2017-10-21T05:24:40.240Z,97172.23
2017-10-21T05:29:26.805Z,97185.44
2017-10-21T05:34:13.401Z,97197.11
2017-10-21T05:39:00.689Z,97203.73
2017-10-21T05:43:47.322Z,97219.05
2017-10-21T05:48:33.896Z,97218.48
2017-10-21T05:53:20.503Z,97227.03
2017-10-21T05:58:07.893Z,97227.63
2017-10-21T06:02:54.465Z,97238.75
2017-10-21T06:07:41.055Z,97236.22
2017-10-21T06:12:27.688Z,97228.12
2017-10-21T06:17:14.988Z,97241.94
2017-10-21T06:22:01.566Z,97230.75
2017-10-21T06:26:48.237Z,97241.50
2017-10-21T06:31:34.944Z,97234.91
2017-10-21T06:36:21.673Z,97241.45
2017-10-21T06:41:08.452Z,97251.64
2017-10-21T06:45:55.216Z,97283.94
2017-10-21T06:50:41.816Z,97278.64
2017-10-21T06:55:28.408Z,97284.81
2017-10-21T07:00:15.854Z,97285.84
2017-10-21T07:05:02.543Z,97282.45
2017-10-21T07:09:49.921Z,97285.05
2017-10-21T07:14:36.580Z,97281.38
2017-10-21T07:19:23.196Z,97280.05
2017-10-21T07:24:09.769Z,97287.50
2017-10-21T07:28:56.417Z,97277.34
2017-10-21T07:33:43.125Z,97282.50
2017-10-21T07:38:29.753Z,97279.25
2017-10-21T07:43:16.340Z,97279.93
2017-10-21T07:48:03.840Z,97275.08
2017-10-21T07:52:50.460Z,97279.71
2017-10-21T07:57:37.045Z,97284.29
2017-10-21T08:02:23.704Z,97275.13
2017-10-21T08:07:10.264Z,97284.38
2017-10-21T08:11:57.572Z,97278.26
2017-10-21T08:16:44.169Z,97284.48
2017-10-21T08:21:30.744Z,97292.69
2017-10-21T08:26:17.332Z,97292.72
2017-10-21T08:31:03.940Z,97292.84
2017-10-21T08:35:50.586Z,97300.40
2017-10-21T08:40:38.024Z,97301.02
2017-10-21T08:45:25.645Z,97303.92
2017-10-21T08:50:12.465Z,97304.29
2017-10-21T08:54:59.077Z,97309.03
2017-10-21T08:59:45.661Z,97311.17
2017-10-21T09:04:32.250Z,97311.08
2017-10-21T09:09:19.701Z,97311.59
2017-10-21T09:14:07.033Z,97307.56
2017-10-21T09:18:53.597Z,97303.84
2017-10-21T09:23:40.170Z,97306.38
2017-10-21T09:28:27.589Z,97308.95
2017-10-21T09:33:14.333Z,97299.12
2017-10-21T09:38:01.684Z,97303.44
2017-10-21T09:42:48.307Z,97300.64
2017-10-21T09:47:35.158Z,97301.69
2017-10-21T09:52:28.781Z,97299.55
2017-10-21T09:57:15.419Z,97293.77
2017-10-21T10:02:02.722Z,97289.03
2017-10-21T10:06:49.311Z,97281.11
2017-10-21T10:11:35.888Z,97280.53
2017-10-21T10:16:23.496Z,97279.84
2017-10-21T10:21:10.099Z,97269.95
2017-10-21T10:25:56.657Z,97253.29
2017-10-21T10:30:43.253Z,97255.35
2017-10-21T10:35:30.001Z,97252.61
2017-10-21T10:40:16.834Z,97243.88
2017-10-21T10:45:04.149Z,97239.11
2017-10-21T10:49:50.749Z,97236.82
2017-10-21T10:54:37.856Z,97229.64
2017-10-21T10:59:24.506Z,97228.88
2017-10-21T11:04:11.122Z,97218.34
2017-10-21T11:08:57.701Z,97219.25
2017-10-21T11:13:44.328Z,97199.25
2017-10-21T11:18:30.905Z,97198.90
2017-10-21T11:23:17.481Z,97200.91
2017-10-21T11:28:04.066Z,97201.16
2017-10-21T11:32:51.395Z,97189.58
2017-10-21T11:37:38.716Z,97184.20
2017-10-21T11:42:25.331Z,97176.75
2017-10-21T11:47:11.912Z,97165.30
2017-10-21T11:51:58.496Z,97156.48
2017-10-21T11:56:45.845Z,97155.52
2017-10-21T12:01:39.361Z,97155.88
2017-10-21T12:06:26.057Z,97145.44
2017-10-21T12:11:12.906Z,97149.80
2017-10-21T12:15:59.468Z,97147.31
2017-10-21T12:20:46.813Z,97139.41
2017-10-21T12:25:34.147Z,97131.84
2017-10-21T12:30:21.522Z,97135.69
2017-10-21T12:35:08.299Z,97129.81
2017-10-21T12:39:54.881Z,97125.41
2017-10-21T12:44:41.440Z,97117.21
2017-10-21T12:49:28.052Z,97120.16
2017-10-21T12:54:14.613Z,97110.37
2017-10-21T12:59:01.228Z,97116.27
2017-10-21T13:03:47.857Z,97111.52
2017-10-21T13:08:34.472Z,97109.48
2017-10-21T13:13:21.181Z,97109.72
2017-10-21T13:18:08.508Z,97112.95
2017-10-21T13:22:55.836Z,97102.66
2017-10-21T13:27:43.140Z,97103.41
2017-10-21T13:32:29.701Z,97098.67
2017-10-21T13:37:17.053Z,97090.73
2017-10-21T13:42:03.825Z,97084.84
2017-10-21T13:46:50.425Z,97087.93
2017-10-21T13:51:37.003Z,97075.77
2017-10-21T13:56:24.542Z,97075.83
2017-10-21T14:01:11.144Z,97073.22
2017-10-21T14:05:57.725Z,97068.31
2017-10-21T14:10:44.288Z,97072.17
2017-10-21T14:15:30.869Z,97065.38
2017-10-21T14:20:17.461Z,97069.47
2017-10-21T14:25:04.081Z,97071.37
2017-10-21T14:29:50.637Z,97063.12
2017-10-21T14:34:37.289Z,97067.33
2017-10-21T14:39:24.628Z,97064.42
2017-10-21T14:44:11.957Z,97056.88
2017-10-21T14:48:59.296Z,97057.75
2017-10-21T14:53:46.250Z,97060.85
2017-10-21T14:58:32.809Z,97060.39
2017-10-21T15:03:19.454Z,97071.15
2017-10-21T15:08:06.085Z,97069.39
2017-10-21T15:12:52.744Z,97075.27
2017-10-21T15:17:39.497Z,97075.91
2017-10-21T15:22:26.310Z,97076.92
2017-10-21T15:27:12.893Z,97078.16
2017-10-21T15:31:59.508Z,97075.15
2017-10-21T15:36:46.102Z,97072.58
2017-10-21T15:41:32.674Z,97070.56
2017-10-21T15:46:19.289Z,97060.77
2017-10-21T15:51:05.896Z,97072.27
2017-10-21T15:55:52.609Z,97072.66
2017-10-21T16:00:39.932Z,97066.74
2017-10-21T16:05:27.314Z,97069.95
2017-10-21T16:10:14.121Z,97069.70
2017-10-21T16:15:00.735Z,97067.17
2017-10-21T16:19:47.532Z,97061.79
2017-10-21T16:24:34.122Z,97067.37
2017-10-21T16:29:20.731Z,97063.02
2017-10-21T16:34:07.404Z,97068.63
2017-10-21T16:38:54.716Z,97064.53
2017-10-21T16:43:42.192Z,97051.78
2017-10-21T16:48:28.809Z,97057.55
2017-10-21T16:53:15.414Z,97057.32
2017-10-21T16:58:02.753Z,97057.35
2017-10-21T17:02:50.104Z,97054.33
2017-10-21T17:07:36.708Z,97057.66
2017-10-21T17:12:24.068Z,97071.98
2017-10-21T17:17:10.793Z,97071.93
2017-10-21T17:21:57.429Z,97072.69
2017-10-21T17:26:43.978Z,97071.03
2017-10-21T17:31:30.632Z,97069.67
2017-10-21T17:36:17.983Z,97057.25
2017-10-21T17:41:04.581Z,97057.87
2017-10-21T17:45:51.281Z,97054.39
2017-10-21T17:50:38.035Z,97046.70
2017-10-21T17:55:25.416Z,97044.09
2017-10-21T18:00:12.084Z,97032.52
2017-10-21T18:04:59.440Z,97038.88
2017-10-21T18:09:46.772Z,97025.75
2017-10-21T18:14:34.125Z,97014.36
2017-10-21T18:19:20.853Z,97024.48
2017-10-21T18:24:07.661Z,97018.47
2017-10-21T18:28:54.650Z,97007.42
2017-10-21T18:33:41.311Z,97010.83
2017-10-21T18:38:28.022Z,97013.81
2017-10-21T18:43:15.405Z,97005.44
2017-10-21T18:48:02.220Z,97010.52
2017-10-21T18:52:48.965Z,97008.97
2017-10-21T18:57:35.668Z,96998.66
2017-10-21T19:02:22.543Z,96991.83
2017-10-21T19:07:10.276Z,96995.14
2017-10-21T19:11:56.905Z,96988.81
2017-10-21T19:16:43.573Z,96977.19
2017-10-21T19:21:30.258Z,96973.94
2017-10-21T19:26:17.580Z,96963.09
2017-10-21T19:31:04.275Z,96962.56
2017-10-21T19:35:51.285Z,96954.06
2017-10-21T19:40:37.953Z,96945.85
2017-10-21T19:45:24.760Z,96941.25
2017-10-21T19:50:11.400Z,96941.08
2017-10-21T19:54:58.068Z,96947.45
2017-10-21T19:59:44.727Z,96949.94
2017-10-21T20:04:31.383Z,96953.41
2017-10-21T20:09:18.837Z,96950.63
2017-10-21T20:14:05.464Z,96946.11
2017-10-21T20:18:52.282Z,96945.16
2017-10-21T20:23:38.983Z,96943.64
2017-10-21T20:28:26.632Z,96937.97
2017-10-21T20:33:13.954Z,96927.36
2017-10-21T20:38:00.553Z,96937.66
2017-10-21T20:42:48.858Z,96936.09
2017-10-21T20:47:35.496Z,96940.70
2017-10-21T20:52:22.147Z,96936.25
2017-10-21T20:57:08.777Z,96940.75
2017-10-21T21:01:55.419Z,96939.57
2017-10-21T21:06:42.761Z,96925.91
2017-10-21T21:11:30.107Z,96926.98
2017-10-21T21:16:17.425Z,96930.86
2017-10-21T21:21:04.014Z,96937.61
2017-10-21T21:25:50.613Z,96938.53
2017-10-21T21:30:37.224Z,96938.05
2017-10-21T21:35:23.802Z,96932.59
2017-10-21T21:40:11.121Z,96939.62
2017-10-21T21:44:57.729Z,96928.89
2017-10-21T21:49:44.305Z,96923.97
2017-10-21T21:54:30.884Z,96937.03
2017-10-21T21:59:17.648Z,96942.39
2017-10-21T22:04:04.474Z,96946.28
2017-10-21T22:08:51.082Z,96946.89
2017-10-21T22:13:38.508Z,96948.31
2017-10-21T22:18:25.125Z,96953.68
2017-10-21T22:23:11.877Z,96952.66
2017-10-21T22:27:58.481Z,96961.16
2017-10-21T22:32:45.823Z,96969.83
2017-10-21T22:37:33.192Z,96968.48
2017-10-21T22:42:19.796Z,96976.01
2017-10-21T22:47:06.616Z,96974.92
2017-10-21T22:51:53.193Z,96978.53
2017-10-21T22:56:39.757Z,97018.09
2017-10-21T23:01:26.374Z,97045.23
2017-10-21T23:06:12.964Z,97051.29
2017-10-21T23:11:00.633Z,97063.28
2017-10-21T23:15:47.213Z,97068.63
2017-10-21T23:20:42.084Z,97071.45
2017-10-21T23:25:28.648Z,97077.93
2017-10-21T23:30:15.495Z,97079.58
2017-10-21T23:35:02.941Z,97099.63
2017-10-21T23:39:49.493Z,97100.00
2017-10-21T23:44:36.072Z,97093.56
2017-10-21T23:49:23.431Z,97105.37
2017-10-21T23:54:10.006Z,97126.98
2017-10-21T23:58:56.569Z,97164.37
